Time;durP1;ratioP1;P1;durP2;ratioP2;P2;SDS_P1;SDS_P2;PMS_P1;PMS_P2;Temp;Humidity;BMP_temperature;BMP_pressure;BME280_temperature;BME280_humidity;BME280_pressure;Samples;Min_cycle;Max_cycle;Signal;HPM_P1;HPM_P2
2023/05/01 00:00:51;;;;;;;5.60;2.77;;;16.40;99.90;;;;;;7284882;19;20731;-78
2023/05/01 00:03:18;;;;;;;5.80;2.67;;;16.40;99.90;;;;;;7286460;19;20221;-78
2023/05/01 00:05:44;;;;;;;7.90;2.97;;;16.40;99.90;;;;;;7286298;19;20613;-78
2023/05/01 00:08:11;;;;;;;5.80;2.67;;;16.30;99.90;;;;;;7284533;19;20271;-78
2023/05/01 00:10:37;;;;;;;6.10;2.67;;;16.30;99.90;;;;;;7286324;19;20193;-77
2023/05/01 00:13:04;;;;;;;7.10;2.50;;;16.10;99.90;;;;;;7295275;19;20199;-78
2023/05/01 00:15:30;;;;;;;7.17;2.67;;;16.10;99.90;;;;;;7307283;19;20219;-78
2023/05/01 00:17:57;;;;;;;6.80;2.70;;;16.10;99.90;;;;;;7287177;19;20184;-78
2023/05/01 00:20:27;;;;;;;7.13;2.67;;;16.10;99.90;;;;;;7283641;19;20194;-75
2023/05/01 00:22:53;;;;;;;5.43;2.90;;;16.10;99.90;;;;;;7286703;19;20198;-78
2023/05/01 00:25:18;;;;;;;6.33;2.60;;;16.20;99.90;;;;;;7283410;19;20185;-78
2023/05/01 00:27:44;;;;;;;7.50;2.87;;;16.20;99.90;;;;;;7283751;19;20719;-77
2023/05/01 00:30:10;;;;;;;6.10;2.53;;;16.20;99.90;;;;;;7283685;19;20195;-77
2023/05/01 00:32:37;;;;;;;5.70;2.50;;;16.20;99.90;;;;;;7283488;19;20620;-78
2023/05/01 00:35:03;;;;;;;7.00;2.90;;;16.30;99.90;;;;;;7299304;19;20202;-77
2023/05/01 00:37:29;;;;;;;5.67;2.47;;;16.30;99.90;;;;;;7303430;19;20180;-78
2023/05/01 00:39:55;;;;;;;6.73;2.70;;;16.30;99.90;;;;;;7283259;19;20188;-78
2023/05/01 00:42:20;;;;;;;6.67;2.57;;;16.20;99.90;;;;;;7284067;19;20208;-78
2023/05/01 00:44:46;;;;;;;6.23;2.77;;;16.20;99.90;;;;;;7284406;19;20196;-77
2023/05/01 00:47:12;;;;;;;7.30;2.60;;;16.20;99.90;;;;;;7280689;19;20280;-77
2023/05/01 00:49:41;;;;;;;5.90;2.30;;;16.20;99.90;;;;;;7282801;19;20189;-78
2023/05/01 00:52:08;;;;;;;4.87;2.63;;;16.20;99.90;;;;;;7283377;19;20187;-77
2023/05/01 00:54:35;;;;;;;5.77;2.50;;;16.20;99.90;;;;;;7284969;19;20211;-77
2023/05/01 00:57:01;;;;;;;6.93;2.73;;;16.20;99.90;;;;;;7306123;19;20197;-77
2023/05/01 00:59:28;;;;;;;8.57;3.83;;;16.20;99.90;;;;;;7284824;19;20219;-77
2023/05/01 01:01:54;;;;;;;13.27;5.00;;;16.20;99.90;;;;;;7284628;19;20695;-76
2023/05/01 01:04:21;;;;;;;8.37;3.00;;;16.20;99.90;;;;;;7283457;19;20197;-77
2023/05/01 01:07:08;;;;;;;8.37;2.90;;;16.30;99.90;;;;;;7283465;19;20184;-77
2023/05/01 01:10:00;;;;;;;5.47;2.50;;;16.40;99.90;;;;;;7267008;19;20865;-78
2023/05/01 01:12:52;;;;;;;4.70;2.43;;;16.40;99.90;;;;;;7283925;19;20201;-77
2023/05/01 01:15:35;;;;;;;5.73;2.60;;;16.20;99.90;;;;;;7181807;19;2004495;-76
2023/05/01 01:18:07;;;;;;;10.13;2.60;;;16.00;99.90;;;;;;7283240;19;20216;-77
2023/05/01 01:20:37;;;;;;;7.43;2.70;;;16.00;99.90;;;;;;7279866;19;20622;-77
2023/05/01 01:23:21;;;;;;;7.30;2.57;;;16.00;99.90;;;;;;7300795;19;20307;-77
2023/05/01 01:26:13;;;;;;;5.97;2.50;;;16.00;99.90;;;;;;7281697;19;20186;-77
2023/05/01 01:29:00;;;;;;;5.10;2.57;;;16.10;99.90;;;;;;7180512;19;2004630;-76
2023/05/01 01:31:49;;;;;;;8.17;2.67;;;15.90;99.90;;;;;;7284007;19;20209;-77
2023/05/01 01:34:19;;;;;;;5.90;2.97;;;15.90;99.90;;;;;;7180179;19;2005048;-77
2023/05/01 01:37:02;;;;;;;7.63;3.10;;;15.70;99.90;;;;;;7284599;19;20194;-75
2023/05/01 01:39:43;;;;;;;6.63;3.10;;;15.70;99.90;;;;;;7289061;19;20185;-76
2023/05/01 01:42:15;;;;;;;4.90;2.73;;;15.70;99.90;;;;;;7185019;19;2004371;-76
2023/05/01 01:44:51;;;;;;;7.97;3.00;;;15.70;99.90;;;;;;7282677;19;20288;-76
2023/05/01 01:47:19;;;;;;;10.40;3.00;;;15.80;99.90;;;;;;7281231;19;20191;-76
2023/05/01 01:49:48;;;;;;;7.13;3.20;;;15.80;99.90;;;;;;7280664;19;20648;-77
2023/05/01 01:52:16;;;;;;;6.60;3.00;;;15.90;99.90;;;;;;7281511;19;20181;-77
2023/05/01 01:54:59;;;;;;;7.67;2.77;;;15.80;99.90;;;;;;7280374;19;20183;-77
2023/05/01 01:57:27;;;;;;;5.83;3.03;;;15.70;99.90;;;;;;7280783;19;20218;-77
2023/05/01 01:59:54;;;;;;;6.67;3.20;;;15.60;99.90;;;;;;7287164;19;20646;-77
2023/05/01 02:02:22;;;;;;;10.13;2.97;;;15.60;99.90;;;;;;7289351;19;20655;-77
2023/05/01 02:04:49;;;;;;;10.20;3.20;;;15.60;99.90;;;;;;7289443;19;20192;-78
2023/05/01 02:07:16;;;;;;;5.07;2.90;;;15.60;99.90;;;;;;7286291;19;20196;-77
2023/05/01 02:09:45;;;;;;;8.13;2.80;;;15.60;99.90;;;;;;7288351;19;20567;-77
2023/05/01 02:12:13;;;;;;;5.73;3.07;;;15.50;99.90;;;;;;7288765;19;20203;-77
2023/05/01 02:14:41;;;;;;;6.17;2.83;;;15.60;99.90;;;;;;7289243;19;20239;-77
2023/05/01 02:17:08;;;;;;;10.43;3.13;;;15.60;99.90;;;;;;7287953;19;20543;-77
2023/05/01 02:19:38;;;;;;;7.63;3.23;;;15.50;99.90;;;;;;7296817;19;20543;-78
2023/05/01 02:22:06;;;;;;;6.93;3.50;;;15.50;99.90;;;;;;7289642;19;20198;-77
2023/05/01 02:24:33;;;;;;;5.77;3.10;;;15.40;99.90;;;;;;7309849;19;20203;-77
2023/05/01 02:27:23;;;;;;;7.40;3.10;;;15.30;99.90;;;;;;7286621;19;20188;-77
2023/05/01 02:29:52;;;;;;;7.87;3.47;;;15.10;99.90;;;;;;7185653;19;2004429;-77
2023/05/01 02:32:18;;;;;;;8.10;3.70;;;15.10;99.90;;;;;;7289597;19;20196;-76
2023/05/01 02:34:45;;;;;;;7.67;3.73;;;15.10;99.90;;;;;;7287512;19;20680;-77
2023/05/01 02:37:11;;;;;;;7.33;3.70;;;15.10;99.90;;;;;;7287773;19;20196;-76
2023/05/01 02:39:40;;;;;;;6.10;3.43;;;15.10;99.90;;;;;;7287786;19;20976;-77
2023/05/01 02:42:08;;;;;;;5.87;3.03;;;15.10;99.90;;;;;;7287293;19;20720;-77
2023/05/01 02:44:45;;;;;;;8.40;3.50;;;15.00;99.90;;;;;;7294605;19;20184;-77
2023/05/01 02:47:16;;;;;;;5.43;3.37;;;14.80;99.90;;;;;;7288586;19;20185;-77
2023/05/01 02:49:43;;;;;;;7.80;3.20;;;14.80;99.90;;;;;;7286825;19;20194;-78
2023/05/01 02:52:11;;;;;;;7.37;3.70;;;14.60;99.90;;;;;;7287634;19;20290;-76
2023/05/01 02:54:37;;;;;;;10.50;3.87;;;14.60;99.90;;;;;;7286437;19;20254;-77
2023/05/01 02:57:04;;;;;;;7.23;3.57;;;14.60;99.90;;;;;;7297541;19;20573;-77
2023/05/01 02:59:31;;;;;;;5.87;3.53;;;14.60;99.90;;;;;;7309176;19;20188;-76
2023/05/01 03:02:00;;;;;;;6.73;3.43;;;14.60;99.90;;;;;;7285647;19;20213;-77
2023/05/01 03:04:25;;;;;;;9.60;4.30;;;14.50;99.90;;;;;;7287952;19;20194;-77
2023/05/01 03:06:51;;;;;;;5.23;3.80;;;14.40;99.90;;;;;;7285977;19;20536;-77
2023/05/01 03:09:18;;;;;;;7.50;3.83;;;14.30;99.90;;;;;;7286420;19;20194;-77
2023/05/01 03:11:43;;;;;;;8.03;3.90;;;14.20;99.90;;;;;;7287336;19;20299;-77
2023/05/01 03:14:10;;;;;;;7.30;4.03;;;14.20;99.90;;;;;;7284697;19;20198;-77
2023/05/01 03:16:36;;;;;;;9.20;3.90;;;14.20;99.90;;;;;;7286920;19;21021;-77
2023/05/01 03:19:01;;;;;;;6.90;3.60;;;14.20;99.90;;;;;;7308570;19;20197;-76
2023/05/01 03:21:27;;;;;;;6.90;3.67;;;14.20;99.90;;;;;;7286498;19;20215;-77
2023/05/01 03:23:53;;;;;;;8.83;4.03;;;14.20;99.90;;;;;;7286433;19;20201;-77
2023/05/01 03:26:19;;;;;;;8.83;4.00;;;14.10;99.90;;;;;;7287658;19;20181;-77
2023/05/01 03:28:45;;;;;;;9.10;4.00;;;14.10;99.90;;;;;;7284886;19;20196;-77
2023/05/01 03:31:11;;;;;;;9.40;3.60;;;14.00;99.90;;;;;;7285839;19;20200;-77
2023/05/01 03:33:39;;;;;;;7.33;3.50;;;14.00;99.90;;;;;;7285509;19;20746;-77
2023/05/01 03:36:06;;;;;;;7.03;4.00;;;13.90;99.90;;;;;;7286010;19;20195;-77
2023/05/01 03:38:33;;;;;;;9.33;3.90;;;14.10;99.90;;;;;;7307721;19;20185;-77
2023/05/01 03:41:08;;;;;;;7.53;3.57;;;14.10;99.90;;;;;;7263344;19;20682;-77
2023/05/01 03:43:52;;;;;;;6.93;3.83;;;14.20;99.90;;;;;;7286631;19;20200;-77
2023/05/01 03:46:31;;;;;;;7.27;4.00;;;14.40;99.90;;;;;;7286929;19;20215;-77
2023/05/01 03:48:58;;;;;;;6.20;3.70;;;14.40;99.90;;;;;;7286403;19;20198;-77
2023/05/01 03:51:26;;;;;;;8.10;4.10;;;14.40;99.90;;;;;;7287242;19;20180;-77
2023/05/01 03:53:55;;;;;;;7.60;3.93;;;14.40;99.90;;;;;;7283586;19;20283;-77
2023/05/01 03:56:24;;;;;;;7.43;3.70;;;14.40;99.90;;;;;;7282694;19;20186;-77
2023/05/01 03:58:53;;;;;;;7.83;3.67;;;14.40;99.90;;;;;;7285384;19;20210;-78
2023/05/01 04:01:20;;;;;;;6.90;3.80;;;14.40;99.90;;;;;;7285720;19;20554;-77
2023/05/01 04:03:47;;;;;;;6.97;4.00;;;14.50;99.90;;;;;;7286169;19;20293;-77
2023/05/01 04:06:13;;;;;;;6.90;3.90;;;14.60;99.90;;;;;;7283505;19;20191;-76
2023/05/01 04:08:38;;;;;;;8.67;4.13;;;14.60;99.90;;;;;;7282507;19;20191;-77
2023/05/01 04:11:05;;;;;;;8.60;4.07;;;14.50;99.90;;;;;;7290683;19;20180;-77
2023/05/01 04:13:31;;;;;;;6.50;3.97;;;14.50;99.90;;;;;;7306174;19;20194;-77
2023/05/01 04:15:58;;;;;;;8.43;4.00;;;14.50;99.90;;;;;;7283353;19;20197;-77
2023/05/01 04:18:25;;;;;;;8.77;4.03;;;14.60;99.90;;;;;;7284173;19;20215;-78
2023/05/01 04:20:52;;;;;;;10.17;3.97;;;14.70;99.90;;;;;;7281897;19;20182;-77
2023/05/01 04:23:19;;;;;;;10.27;4.20;;;14.70;99.90;;;;;;7283626;19;20197;-77
2023/05/01 04:25:46;;;;;;;10.03;4.17;;;14.70;99.90;;;;;;7285272;19;20191;-77
2023/05/01 04:28:15;;;;;;;8.13;4.50;;;14.60;99.90;;;;;;7283982;19;20212;-76
2023/05/01 04:30:41;;;;;;;8.40;4.03;;;14.50;99.90;;;;;;7285296;19;20200;-76
2023/05/01 04:33:10;;;;;;;8.43;4.40;;;14.50;99.90;;;;;;7284140;19;20285;-77
2023/05/01 04:35:41;;;;;;;6.87;4.07;;;14.40;99.90;;;;;;7283312;19;20195;-76
2023/05/01 04:38:09;;;;;;;8.40;4.47;;;14.20;99.90;;;;;;7285182;19;20205;-77
2023/05/01 04:40:36;;;;;;;7.33;4.40;;;14.20;99.90;;;;;;7283895;19;20192;-76
2023/05/01 04:43:02;;;;;;;9.13;4.50;;;14.20;99.90;;;;;;7305353;19;20190;-76
2023/05/01 04:45:28;;;;;;;9.30;4.40;;;14.20;99.90;;;;;;7285435;19;20195;-77
2023/05/01 04:47:54;;;;;;;9.27;4.63;;;14.20;99.90;;;;;;7283908;19;20264;-76
2023/05/01 04:50:20;;;;;;;8.53;4.80;;;14.30;99.90;;;;;;7283438;19;20200;-77
2023/05/01 04:52:46;;;;;;;7.57;4.63;;;14.40;99.90;;;;;;7284298;19;20198;-77
2023/05/01 04:55:12;;;;;;;12.80;5.10;;;14.40;99.90;;;;;;7282925;19;20192;-77
2023/05/01 04:57:50;;;;;;;8.80;4.83;;;14.50;99.90;;;;;;7283874;19;20194;-77
2023/05/01 05:00:18;;;;;;;7.90;5.03;;;14.60;99.90;;;;;;7283922;19;20195;-77
2023/05/01 05:02:51;;;;;;;11.03;4.97;;;14.60;99.90;;;;;;7284310;19;20201;-79
2023/05/01 05:05:17;;;;;;;9.10;5.20;;;14.60;99.90;;;;;;7286127;19;20196;-77
2023/05/01 05:07:42;;;;;;;10.00;4.77;;;14.60;99.90;;;;;;7282520;19;20188;-77
2023/05/01 05:10:26;;;;;;;8.40;4.90;;;14.70;99.90;;;;;;7284509;19;20266;-77
2023/05/01 05:13:08;;;;;;;9.63;5.13;;;14.70;99.90;;;;;;7283169;19;20195;-77
2023/05/01 05:15:35;;;;;;;8.90;5.00;;;14.80;99.90;;;;;;7281644;19;20761;-77
2023/05/01 05:18:02;;;;;;;10.03;6.57;;;14.90;99.90;;;;;;7305598;19;20246;-77
2023/05/01 05:20:30;;;;;;;12.40;7.70;;;15.00;99.90;;;;;;7283091;19;20647;-76
2023/05/01 05:22:56;;;;;;;17.73;9.80;;;15.00;99.90;;;;;;7284903;19;20295;-77
2023/05/01 05:25:23;;;;;;;15.40;10.03;;;15.20;99.90;;;;;;7283383;19;20264;-77
2023/05/01 05:27:49;;;;;;;15.87;10.03;;;15.20;99.90;;;;;;7281756;19;20721;-77
2023/05/01 05:30:15;;;;;;;17.90;10.10;;;15.30;99.90;;;;;;7283394;19;20545;-77
2023/05/01 05:32:43;;;;;;;13.87;9.57;;;15.30;99.90;;;;;;7286538;19;20207;-77
2023/05/01 05:35:09;;;;;;;14.50;10.00;;;15.40;99.90;;;;;;7289620;19;20191;-77
2023/05/01 05:37:35;;;;;;;13.70;9.63;;;15.40;99.90;;;;;;7291358;19;20184;-77
2023/05/01 05:40:01;;;;;;;14.37;9.80;;;15.50;99.90;;;;;;7312273;19;20194;-76
2023/05/01 05:42:30;;;;;;;13.43;9.30;;;15.60;99.90;;;;;;7289194;19;20191;-77
2023/05/01 05:44:59;;;;;;;14.20;9.83;;;15.50;99.90;;;;;;7289826;19;20492;-76
2023/05/01 05:47:25;;;;;;;15.30;9.43;;;15.60;99.90;;;;;;7287319;19;20206;-76
2023/05/01 05:49:51;;;;;;;13.03;9.47;;;15.60;99.90;;;;;;7286744;19;20196;-76
2023/05/01 05:52:23;;;;;;;13.00;9.30;;;15.60;99.90;;;;;;7289392;19;20192;-76
2023/05/01 05:54:49;;;;;;;13.77;9.13;;;15.70;99.90;;;;;;7288931;19;20221;-76
2023/05/01 05:57:15;;;;;;;15.27;9.37;;;15.80;99.90;;;;;;7288414;19;20206;-77
2023/05/01 05:59:46;;;;;;;14.77;9.77;;;15.90;99.90;;;;;;7287615;19;20585;-76
2023/05/01 06:02:16;;;;;;;12.47;8.97;;;16.10;99.90;;;;;;7288943;19;20196;-77
2023/05/01 06:04:43;;;;;;;13.70;8.83;;;16.10;99.90;;;;;;7286020;19;20284;-77
2023/05/01 06:07:09;;;;;;;14.07;10.00;;;16.10;99.90;;;;;;7288303;19;20185;-77
2023/05/01 06:09:36;;;;;;;12.70;8.80;;;16.20;99.90;;;;;;7292350;19;21757;-77
2023/05/01 06:12:04;;;;;;;16.47;9.77;;;16.40;99.90;;;;;;7311079;19;20190;-78
2023/05/01 06:14:30;;;;;;;15.43;9.90;;;16.60;99.90;;;;;;7288980;19;20195;-77
2023/05/01 06:16:56;;;;;;;15.27;9.57;;;16.80;99.90;;;;;;7287864;19;20387;-77
2023/05/01 06:19:22;;;;;;;16.00;9.63;;;17.00;99.90;;;;;;7290039;19;20639;-76
2023/05/01 06:21:52;;;;;;;13.23;9.60;;;17.10;99.90;;;;;;7286419;19;20222;-76
2023/05/01 06:24:18;;;;;;;16.30;10.83;;;17.30;99.90;;;;;;7287908;19;20567;-78
2023/05/01 06:26:47;;;;;;;18.47;11.00;;;17.60;99.90;;;;;;7288857;19;20197;-77
2023/05/01 06:29:12;;;;;;;17.00;11.53;;;17.70;99.90;;;;;;7285853;19;20620;-78
2023/05/01 06:31:38;;;;;;;18.03;11.47;;;17.90;99.90;;;;;;7288186;19;20198;-78
2023/05/01 06:34:04;;;;;;;16.83;11.60;;;18.20;99.90;;;;;;7301554;19;20514;-77
2023/05/01 06:36:40;;;;;;;16.33;12.97;;;18.40;99.90;;;;;;7286832;19;20199;-77
2023/05/01 06:39:06;;;;;;;19.33;13.80;;;18.30;99.90;;;;;;7287218;19;20200;-77
2023/05/01 06:41:33;;;;;;;20.23;14.33;;;18.50;99.90;;;;;;7308360;19;20192;-77
2023/05/01 06:43:59;;;;;;;16.20;12.63;;;18.70;99.90;;;;;;7286838;19;20192;-77
2023/05/01 06:46:24;;;;;;;17.67;12.83;;;18.80;99.90;;;;;;7286827;19;20185;-76
2023/05/01 06:48:50;;;;;;;19.27;13.57;;;18.90;99.90;;;;;;7286911;19;20259;-77
2023/05/01 06:51:16;;;;;;;18.77;14.07;;;18.90;99.90;;;;;;7287182;19;20200;-77
2023/05/01 06:53:42;;;;;;;19.77;14.87;;;18.80;99.90;;;;;;7287106;19;20203;-77
2023/05/01 06:56:08;;;;;;;18.73;14.40;;;19.00;99.90;;;;;;7285490;19;20194;-77
2023/05/01 06:58:34;;;;;;;21.17;16.33;;;19.10;99.90;;;;;;7304489;19;20191;-77
2023/05/01 07:00:59;;;;;;;24.93;18.30;;;19.20;99.90;;;;;;7300105;19;20217;-77
2023/05/01 07:03:28;;;;;;;24.90;18.23;;;19.20;99.90;;;;;;7288336;19;20208;-77
2023/05/01 07:05:54;;;;;;;22.87;17.40;;;19.30;99.90;;;;;;7285887;19;20740;-77
2023/05/01 07:08:20;;;;;;;24.53;18.27;;;19.40;99.90;;;;;;7286541;19;20185;-77
2023/05/01 07:10:46;;;;;;;26.23;19.43;;;19.40;99.90;;;;;;7288772;19;20204;-77
2023/05/01 07:13:12;;;;;;;25.67;19.53;;;18.80;99.90;;;;;;7287126;19;20191;-77
2023/05/01 07:15:37;;;;;;;26.40;20.27;;;18.90;99.90;;;;;;7287672;19;20193;-77
2023/05/01 07:18:06;;;;;;;27.07;20.73;;;18.60;99.90;;;;;;7309095;19;20210;-77
2023/05/01 07:20:33;;;;;;;27.03;20.50;;;17.90;99.90;;;;;;7285536;19;20188;-77
2023/05/01 07:22:59;;;;;;;27.77;21.10;;;18.40;99.90;;;;;;7288282;19;20552;-77
2023/05/01 07:25:25;;;;;;;27.73;20.70;;;18.80;99.90;;;;;;7285110;19;20193;-77
2023/05/01 07:27:51;;;;;;;28.93;21.00;;;19.20;99.90;;;;;;7284830;19;20184;-78
2023/05/01 07:30:16;;;;;;;28.23;20.87;;;19.30;99.90;;;;;;7285775;19;20263;-77
2023/05/01 07:32:42;;;;;;;30.03;21.10;;;19.60;99.90;;;;;;7284510;19;20257;-77
2023/05/01 07:35:08;;;;;;;29.47;22.47;;;19.90;99.90;;;;;;7283264;19;20217;-77
2023/05/01 07:37:34;;;;;;;30.00;23.10;;;19.40;99.90;;;;;;7305495;19;20223;-77
2023/05/01 07:39:59;;;;;;;30.73;23.03;;;19.40;99.90;;;;;;7295331;19;20205;-77
2023/05/01 07:42:26;;;;;;;30.70;22.77;;;19.50;99.90;;;;;;7287243;19;20713;-77
2023/05/01 07:44:52;;;;;;;31.43;22.13;;;19.40;99.90;;;;;;7286527;19;20598;-78
2023/05/01 07:47:18;;;;;;;30.03;22.77;;;18.90;99.90;;;;;;7285211;19;20197;-77
2023/05/01 07:49:44;;;;;;;31.10;23.23;;;19.10;99.90;;;;;;7286800;19;20193;-77
2023/05/01 07:52:10;;;;;;;32.40;22.67;;;19.30;99.90;;;;;;7285243;19;20189;-77
2023/05/01 07:54:36;;;;;;;30.20;22.90;;;19.40;99.90;;;;;;7285690;19;20711;-78
2023/05/01 07:57:02;;;;;;;33.50;24.17;;;19.40;99.90;;;;;;7305624;19;20210;-77
2023/05/01 07:59:28;;;;;;;34.00;24.27;;;19.60;99.90;;;;;;7285925;19;20189;-77
2023/05/01 08:01:54;;;;;;;37.03;24.93;;;19.60;99.90;;;;;;7285120;19;20696;-77
2023/05/01 08:04:21;;;;;;;36.80;25.63;;;20.00;99.90;;;;;;7283659;19;20308;-77
2023/05/01 08:06:50;;;;;;;34.57;26.03;;;20.00;99.90;;;;;;7284762;19;20215;-78
2023/05/01 08:09:16;;;;;;;32.70;25.63;;;20.10;99.90;;;;;;7284743;19;20185;-77
2023/05/01 08:11:42;;;;;;;38.27;25.27;;;19.70;99.90;;;;;;7284529;19;20626;-78
2023/05/01 08:14:08;;;;;;;36.90;26.90;;;19.50;99.90;;;;;;7283029;19;20181;-78
2023/05/01 08:16:34;;;;;;;36.00;25.90;;;19.20;99.90;;;;;;7306845;19;20196;-78
2023/05/01 08:19:00;;;;;;;37.27;27.13;;;19.00;99.90;;;;;;7282961;19;20188;-78
2023/05/01 08:21:26;;;;;;;37.47;26.23;;;19.30;99.90;;;;;;7284557;19;20193;-77
2023/05/01 08:23:55;;;;;;;35.67;25.87;;;19.50;99.90;;;;;;7284209;19;20223;-76
2023/05/01 08:26:21;;;;;;;37.33;27.43;;;19.20;99.90;;;;;;7287760;19;20291;-78
2023/05/01 08:28:49;;;;;;;36.00;25.57;;;19.80;99.90;;;;;;7287619;19;20181;-76
2023/05/01 08:31:18;;;;;;;35.67;26.07;;;20.60;99.90;;;;;;7285914;19;20545;-78
2023/05/01 08:33:45;;;;;;;38.27;27.57;;;21.20;99.90;;;;;;7294333;19;20208;-77
2023/05/01 08:36:11;;;;;;;37.37;26.50;;;21.80;99.90;;;;;;7284163;19;20203;-77
2023/05/01 08:38:37;;;;;;;36.90;25.93;;;22.10;99.90;;;;;;7285190;19;20186;-78
2023/05/01 08:41:03;;;;;;;35.23;25.00;;;23.10;99.90;;;;;;7305447;19;20181;-77
2023/05/01 08:43:32;;;;;;;35.37;26.33;;;23.70;99.90;;;;;;7284341;19;20206;-77
2023/05/01 08:46:03;;;;;;;32.67;25.70;;;24.80;99.90;;;;;;7282627;19;20203;-77
2023/05/01 08:48:31;;;;;;;35.50;26.03;;;25.00;99.90;;;;;;7280728;19;20183;-77
2023/05/01 08:50:58;;;;;;;34.43;26.17;;;24.10;99.90;;;;;;7284323;19;20237;-77
2023/05/01 08:53:25;;;;;;;34.83;26.67;;;23.60;99.90;;;;;;7282654;19;20198;-77
2023/05/01 08:55:52;;;;;;;40.17;28.87;;;23.60;99.90;;;;;;7283467;19;20613;-77
2023/05/01 08:58:19;;;;;;;37.50;27.87;;;23.20;99.90;;;;;;7283219;19;20188;-77
2023/05/01 09:00:46;;;;;;;37.00;27.70;;;22.90;99.90;;;;;;7282339;19;20204;-77
2023/05/01 09:03:14;;;;;;;39.33;28.13;;;22.40;99.90;;;;;;7282829;19;20190;-77
2023/05/01 09:05:40;;;;;;;39.20;28.90;;;22.20;99.90;;;;;;7283418;19;20571;-77
2023/05/01 09:08:06;;;;;;;38.13;27.57;;;22.20;99.90;;;;;;7283772;19;20190;-77
2023/05/01 09:10:33;;;;;;;35.43;27.80;;;24.40;99.90;;;;;;7305567;19;20185;-76
2023/05/01 09:13:05;;;;;;;36.13;27.85;;;26.40;99.90;;;;;;7282217;19;20490;-77
2023/05/01 09:15:32;;;;;;;31.83;25.65;;;27.60;99.90;;;;;;7283419;19;20829;-76
2023/05/01 09:17:59;;;;;;;33.78;26.15;;;27.40;99.90;;;;;;7283801;19;20598;-76
2023/05/01 09:20:25;;;;;;;32.60;24.88;;;29.00;99.90;;;;;;7282774;19;20217;-76
2023/05/01 09:22:51;;;;;;;30.35;25.27;;;30.00;99.90;;;;;;7287537;19;20668;-80
2023/05/01 09:25:18;;;;;;;31.02;24.70;;;29.80;99.90;;;;;;7284686;19;20212;-80
2023/05/01 09:27:44;;;;;;;30.20;25.33;;;32.00;99.90;;;;;;7279990;19;20181;-80
2023/05/01 09:30:35;;;;;;;33.65;25.08;;;30.00;98.70;;;;;;7284646;19;20201;-80
2023/05/01 09:33:05;;;;;;;32.20;23.63;;;30.80;99.60;;;;;;7283568;19;20188;-81
2023/05/01 09:35:31;;;;;;;30.30;22.80;;;31.00;97.50;;;;;;7282568;19;20277;-81
2023/05/01 09:37:57;;;;;;;26.88;22.35;;;30.60;97.90;;;;;;7284537;19;20314;-81
2023/05/01 09:40:26;;;;;;;23.85;20.83;;;31.20;95.20;;;;;;7281639;19;20608;-82
2023/05/01 09:42:56;;;;;;;26.80;21.60;;;30.70;95.30;;;;;;7285057;19;20189;-81
2023/05/01 09:45:22;;;;;;;27.20;21.50;;;29.60;95.40;;;;;;7285100;19;20188;-81
2023/05/01 09:47:48;;;;;;;29.30;22.65;;;28.80;95.10;;;;;;7283697;19;20188;-81
2023/05/01 09:50:33;;;;;;;26.95;21.80;;;27.50;96.80;;;;;;7283567;19;20188;-81
2023/05/01 09:53:03;;;;;;;29.08;23.27;;;25.50;99.20;;;;;;7284070;19;20189;-81
2023/05/01 09:55:30;;;;;;;32.73;23.23;;;24.40;99.90;;;;;;7283452;19;20189;-81
2023/05/01 09:57:57;;;;;;;31.90;23.10;;;24.00;99.90;;;;;;7285501;19;20512;-82
2023/05/01 10:00:24;;;;;;;30.23;22.60;;;23.50;99.90;;;;;;7283446;19;20566;-81
2023/05/01 10:02:50;;;;;;;27.77;21.80;;;23.50;99.90;;;;;;7283829;19;20264;-81
2023/05/01 10:05:17;;;;;;;30.27;21.80;;;23.40;99.90;;;;;;7283872;19;20256;-81
2023/05/01 10:08:00;;;;;;;29.70;22.40;;;23.80;99.90;;;;;;7284026;19;20191;-80
2023/05/01 10:10:27;;;;;;;28.57;21.13;;;24.00;99.90;;;;;;7285332;19;20890;-80
2023/05/01 10:12:53;;;;;;;28.77;20.60;;;25.50;99.90;;;;;;7284689;19;20704;-80
2023/05/01 10:15:19;;;;;;;26.23;20.75;;;27.70;99.90;;;;;;7282096;19;20196;-80
2023/05/01 10:17:52;;;;;;;24.60;19.80;;;28.00;99.90;;;;;;7285328;19;20189;-80
2023/05/01 10:20:17;;;;;;;29.95;21.88;;;28.10;99.90;;;;;;7288579;19;20371;-80
2023/05/01 10:22:43;;;;;;;27.35;21.70;;;27.70;99.90;;;;;;7289836;19;21115;-80
2023/05/01 10:25:11;;;;;;;26.27;21.88;;;27.60;99.90;;;;;;7290382;19;20204;-79
2023/05/01 10:27:40;;;;;;;26.45;21.35;;;27.20;99.90;;;;;;7288733;19;20299;-79
2023/05/01 10:30:07;;;;;;;27.33;21.65;;;26.70;99.90;;;;;;7293472;19;20574;-80
2023/05/01 10:32:36;;;;;;;27.73;21.20;;;27.30;99.90;;;;;;7311717;19;20188;-80
2023/05/01 10:35:07;;;;;;;25.08;20.10;;;27.80;99.90;;;;;;7287512;19;20252;-81
2023/05/01 10:37:47;;;;;;;23.90;18.65;;;28.50;99.90;;;;;;7291103;19;20189;-81
2023/05/01 10:40:38;;;;;;;24.42;19.52;;;29.50;98.20;;;;;;7188179;19;2004773;-81
2023/05/01 10:43:27;;;;;;;23.42;19.33;;;30.00;97.80;;;;;;7289268;19;20190;-79
2023/05/01 10:46:15;;;;;;;21.35;17.52;;;30.80;94.50;;;;;;7186813;19;2004729;-81
2023/05/01 10:48:42;;;;;;;20.42;16.58;;;32.30;93.40;;;;;;7191540;19;2004573;-80
2023/05/01 10:51:19;;;;;;;23.30;18.02;;;32.30;92.50;;;;;;7295801;19;20192;-80
2023/05/01 10:53:46;;;;;;;21.60;16.45;;;30.50;92.10;;;;;;7306586;19;20192;-79
2023/05/01 10:56:22;;;;;;;18.88;15.65;;;30.30;92.80;;;;;;7321352;19;20177;-79
2023/05/01 10:58:55;;;;;;;23.33;16.52;;;29.30;92.80;;;;;;7291699;19;20188;-81
2023/05/01 11:01:33;;;;;;;18.95;15.98;;;28.40;93.40;;;;;;7286805;19;20188;-80
2023/05/01 11:04:20;;;;;;;21.73;16.40;;;27.50;95.50;;;;;;7288156;19;20192;-80
2023/05/01 11:07:02;;;;;;;19.67;15.10;;;27.10;96.80;;;;;;7185319;19;2004623;-80
2023/05/01 11:09:56;;;;;;;24.40;15.20;;;26.80;96.20;;;;;;7284041;19;20201;-80
2023/05/01 11:12:50;;;;;;;19.80;14.47;;;26.20;97.60;;;;;;7184862;19;2004573;-79
2023/05/01 11:15:26;;;;;;;20.80;15.23;;;25.40;97.70;;;;;;7185026;19;2004595;-80
2023/05/01 11:17:52;;;;;;;20.73;14.40;;;24.80;97.90;;;;;;7287211;19;20636;-79
2023/05/01 11:20:24;;;;;;;21.70;14.80;;;24.50;99.90;;;;;;7287111;19;20188;-80
2023/05/01 11:22:55;;;;;;;22.80;15.03;;;24.30;99.90;;;;;;7287034;19;20217;-79
2023/05/01 11:25:26;;;;;;;23.13;14.30;;;23.90;99.90;;;;;;7287516;19;20511;-81
2023/05/01 11:27:54;;;;;;;22.43;14.40;;;23.90;99.90;;;;;;7287198;19;20526;-80
2023/05/01 11:30:20;;;;;;;21.63;13.90;;;23.80;99.90;;;;;;7286055;19;20185;-80
2023/05/01 11:32:48;;;;;;;19.20;13.50;;;23.80;99.90;;;;;;7285977;19;20195;-80
2023/05/01 11:35:20;;;;;;;21.07;13.33;;;23.60;99.90;;;;;;7286023;19;20196;-80
2023/05/01 11:37:47;;;;;;;19.60;12.77;;;23.60;99.90;;;;;;7284976;19;20185;-80
2023/05/01 11:40:29;;;;;;;17.03;12.57;;;24.10;99.90;;;;;;7288249;19;20188;-81
2023/05/01 11:43:12;;;;;;;19.97;13.67;;;24.30;99.90;;;;;;7287730;19;22631;-80
2023/05/01 11:45:38;;;;;;;19.40;13.23;;;23.90;99.90;;;;;;7264340;19;20180;-80
2023/05/01 11:48:15;;;;;;;17.10;12.80;;;23.90;99.90;;;;;;7308944;19;20547;-81
2023/05/01 11:50:40;;;;;;;18.73;12.80;;;24.00;99.90;;;;;;7184716;19;2004958;-80
2023/05/01 11:53:13;;;;;;;23.43;14.37;;;24.20;99.90;;;;;;7292027;19;20173;-79
2023/05/01 11:55:39;;;;;;;20.17;14.63;;;24.00;99.90;;;;;;7286043;19;20672;-81
2023/05/01 11:58:05;;;;;;;21.60;13.80;;;24.00;99.90;;;;;;7308424;19;20696;-80
2023/05/01 12:00:33;;;;;;;22.77;15.13;;;24.00;99.90;;;;;;7288054;19;20189;-80
2023/05/01 12:03:00;;;;;;;18.20;13.33;;;24.10;99.90;;;;;;7287480;19;20252;-80
2023/05/01 12:05:28;;;;;;;21.30;13.93;;;24.50;99.90;;;;;;7286807;19;20182;-80
2023/05/01 12:08:19;;;;;;;24.60;14.13;;;24.80;99.90;;;;;;7286963;19;20223;-80
2023/05/01 12:10:56;;;;;;;21.93;15.27;;;25.00;99.90;;;;;;7184509;19;2004606;-81
2023/05/01 12:13:22;;;;;;;21.60;14.67;;;25.40;99.90;;;;;;7284571;19;20786;-80
2023/05/01 12:16:00;;;;;;;22.83;15.93;;;25.70;99.90;;;;;;7286794;19;20550;-80
2023/05/01 12:18:26;;;;;;;20.87;15.30;;;25.90;99.90;;;;;;7287882;19;20198;-80
2023/05/01 12:20:53;;;;;;;21.83;15.83;;;25.50;99.50;;;;;;7286272;19;20205;-80
2023/05/01 12:23:34;;;;;;;20.07;14.67;;;25.50;99.90;;;;;;7285193;19;20213;-80
2023/05/01 12:26:02;;;;;;;20.43;14.53;;;25.20;99.40;;;;;;7284554;19;20262;-80
2023/05/01 12:28:28;;;;;;;20.13;15.00;;;25.00;97.90;;;;;;7285916;19;20193;-79
2023/05/01 12:31:01;;;;;;;20.57;14.37;;;25.00;97.50;;;;;;7285368;19;20204;-80
2023/05/01 12:33:27;;;;;;;20.93;15.20;;;25.10;99.90;;;;;;7283698;19;20235;-80
2023/05/01 12:35:52;;;;;;;20.40;15.07;;;25.30;99.90;;;;;;7284671;19;20181;-80
2023/05/01 12:38:22;;;;;;;20.87;15.53;;;25.00;99.90;;;;;;7285290;19;20192;-80
2023/05/01 12:40:57;;;;;;;22.07;16.27;;;24.80;98.80;;;;;;7283218;19;20252;-79
2023/05/01 12:43:33;;;;;;;22.57;16.33;;;24.70;99.90;;;;;;7283442;19;20188;-79
2023/05/01 12:46:00;;;;;;;22.17;15.63;;;24.80;99.30;;;;;;7285357;19;20189;-79